sensor_id;sensor_type;location;lat;lon;timestamp;temperature;humidity
52565;DHT22;38460;53.106;7.004;2023-03-23T00:00:47;10.60;99.90
52565;DHT22;38460;53.106;7.004;2023-03-23T00:03:12;10.60;99.90
52565;DHT22;38460;53.106;7.004;2023-03-23T00:05:39;10.60;99.90
52565;DHT22;38460;53.106;7.004;2023-03-23T00:08:07;10.50;99.90
52565;DHT22;38460;53.106;7.004;2023-03-23T00:10:38;10.60;99.90
52565;DHT22;38460;53.106;7.004;2023-03-23T00:13:04;10.60;99.90
52565;DHT22;38460;53.106;7.004;2023-03-23T00:15:30;10.60;99.90
52565;DHT22;38460;53.106;7.004;2023-03-23T00:18:01;10.60;99.90
52565;DHT22;38460;53.106;7.004;2023-03-23T00:20:30;10.60;99.90
52565;DHT22;38460;53.106;7.004;2023-03-23T00:23:05;10.60;99.90
52565;DHT22;38460;53.106;7.004;2023-03-23T00:25:32;10.60;99.90
52565;DHT22;38460;53.106;7.004;2023-03-23T00:27:58;10.60;99.90
52565;DHT22;38460;53.106;7.004;2023-03-23T00:30:24;10.60;99.90
52565;DHT22;38460;53.106;7.004;2023-03-23T00:32:49;10.60;99.90
52565;DHT22;38460;53.106;7.004;2023-03-23T00:35:16;10.60;99.90
52565;DHT22;38460;53.106;7.004;2023-03-23T00:37:43;10.60;99.90
52565;DHT22;38460;53.106;7.004;2023-03-23T00:40:10;10.60;99.90
52565;DHT22;38460;53.106;7.004;2023-03-23T00:42:36;10.60;99.90
52565;DHT22;38460;53.106;7.004;2023-03-23T00:45:04;10.60;99.90
52565;DHT22;38460;53.106;7.004;2023-03-23T00:47:37;10.70;99.90
52565;DHT22;38460;53.106;7.004;2023-03-23T00:50:04;10.70;99.90
52565;DHT22;38460;53.106;7.004;2023-03-23T00:52:30;10.60;99.90
52565;DHT22;38460;53.106;7.004;2023-03-23T00:54:56;10.70;99.90
52565;DHT22;38460;53.106;7.004;2023-03-23T00:57:22;10.70;99.90
52565;DHT22;38460;53.106;7.004;2023-03-23T00:59:50;10.70;99.90
52565;DHT22;38460;53.106;7.004;2023-03-23T01:02:16;10.70;99.90
52565;DHT22;38460;53.106;7.004;2023-03-23T01:04:43;10.70;99.90
52565;DHT22;38460;53.106;7.004;2023-03-23T01:07:10;10.70;99.90
52565;DHT22;38460;53.106;7.004;2023-03-23T01:09:39;10.70;99.90
52565;DHT22;38460;53.106;7.004;2023-03-23T01:12:10;10.70;99.90
52565;DHT22;38460;53.106;7.004;2023-03-23T01:14:36;10.70;99.90
52565;DHT22;38460;53.106;7.004;2023-03-23T01:17:02;10.70;99.90
52565;DHT22;38460;53.106;7.004;2023-03-23T01:19:28;10.60;99.90
52565;DHT22;38460;53.106;7.004;2023-03-23T01:21:54;10.70;99.90
52565;DHT22;38460;53.106;7.004;2023-03-23T01:24:19;10.60;99.90
52565;DHT22;38460;53.106;7.004;2023-03-23T01:26:45;10.70;99.90
52565;DHT22;38460;53.106;7.004;2023-03-23T01:29:11;10.70;99.90
52565;DHT22;38460;53.106;7.004;2023-03-23T01:31:37;10.70;99.90
52565;DHT22;38460;53.106;7.004;2023-03-23T01:34:03;10.70;99.90
52565;DHT22;38460;53.106;7.004;2023-03-23T01:36:30;10.70;99.90
52565;DHT22;38460;53.106;7.004;2023-03-23T01:39:03;10.70;99.90
52565;DHT22;38460;53.106;7.004;2023-03-23T01:41:30;10.60;99.90
52565;DHT22;38460;53.106;7.004;2023-03-23T01:46:36;10.60;99.90
52565;DHT22;38460;53.106;7.004;2023-03-23T01:49:07;10.60;99.90
52565;DHT22;38460;53.106;7.004;2023-03-23T01:51:35;10.60;99.90
52565;DHT22;38460;53.106;7.004;2023-03-23T01:54:03;10.60;99.90
52565;DHT22;38460;53.106;7.004;2023-03-23T01:56:46;10.60;99.90
52565;DHT22;38460;53.106;7.004;2023-03-23T01:59:13;10.60;99.90
52565;DHT22;38460;53.106;7.004;2023-03-23T02:01:41;10.60;99.90
52565;DHT22;38460;53.106;7.004;2023-03-23T02:04:12;10.60;99.90
52565;DHT22;38460;53.106;7.004;2023-03-23T02:06:38;10.60;99.90
52565;DHT22;38460;53.106;7.004;2023-03-23T02:09:04;10.60;99.90
52565;DHT22;38460;53.106;7.004;2023-03-23T02:11:33;10.60;99.90
52565;DHT22;38460;53.106;7.004;2023-03-23T02:13:59;10.60;99.90
52565;DHT22;38460;53.106;7.004;2023-03-23T02:27:16;10.50;99.90
52565;DHT22;38460;53.106;7.004;2023-03-23T02:29:59;10.50;99.90
52565;DHT22;38460;53.106;7.004;2023-03-23T02:35:39;10.40;99.90
52565;DHT22;38460;53.106;7.004;2023-03-23T02:38:17;10.40;99.90
52565;DHT22;38460;53.106;7.004;2023-03-23T02:40:47;10.50;99.90
52565;DHT22;38460;53.106;7.004;2023-03-23T02:43:18;10.50;99.90
52565;DHT22;38460;53.106;7.004;2023-03-23T02:45:46;10.40;99.90
52565;DHT22;38460;53.106;7.004;2023-03-23T02:48:14;10.50;99.90
52565;DHT22;38460;53.106;7.004;2023-03-23T02:50:44;10.50;99.90
52565;DHT22;38460;53.106;7.004;2023-03-23T02:53:13;10.40;99.90
52565;DHT22;38460;53.106;7.004;2023-03-23T02:55:43;10.40;99.90
52565;DHT22;38460;53.106;7.004;2023-03-23T02:58:11;10.40;99.90
52565;DHT22;38460;53.106;7.004;2023-03-23T03:00:37;10.50;99.90
52565;DHT22;38460;53.106;7.004;2023-03-23T03:03:05;10.50;99.90
52565;DHT22;38460;53.106;7.004;2023-03-23T03:08:29;10.50;99.90
52565;DHT22;38460;53.106;7.004;2023-03-23T03:11:16;10.50;99.90
52565;DHT22;38460;53.106;7.004;2023-03-23T03:14:00;10.50;99.90
52565;DHT22;38460;53.106;7.004;2023-03-23T03:19:20;10.50;99.90
52565;DHT22;38460;53.106;7.004;2023-03-23T03:21:52;10.50;99.90
52565;DHT22;38460;53.106;7.004;2023-03-23T03:24:21;10.50;99.90
52565;DHT22;38460;53.106;7.004;2023-03-23T03:26:50;10.50;99.90
52565;DHT22;38460;53.106;7.004;2023-03-23T03:29:24;10.40;99.90
52565;DHT22;38460;53.106;7.004;2023-03-23T03:31:52;10.50;99.90
52565;DHT22;38460;53.106;7.004;2023-03-23T03:34:21;10.50;99.90
52565;DHT22;38460;53.106;7.004;2023-03-23T03:36:50;10.40;99.90
52565;DHT22;38460;53.106;7.004;2023-03-23T03:39:18;10.50;99.90
52565;DHT22;38460;53.106;7.004;2023-03-23T03:41:46;10.50;99.90
52565;DHT22;38460;53.106;7.004;2023-03-23T03:44:12;10.50;99.90
52565;DHT22;38460;53.106;7.004;2023-03-23T03:46:38;10.40;99.90
52565;DHT22;38460;53.106;7.004;2023-03-23T03:49:06;10.40;99.90
52565;DHT22;38460;53.106;7.004;2023-03-23T03:51:34;10.40;99.90
52565;DHT22;38460;53.106;7.004;2023-03-23T03:53:59;10.40;99.90
52565;DHT22;38460;53.106;7.004;2023-03-23T03:56:25;10.40;99.90
52565;DHT22;38460;53.106;7.004;2023-03-23T03:58:52;10.40;99.90
52565;DHT22;38460;53.106;7.004;2023-03-23T04:01:21;10.50;99.90
52565;DHT22;38460;53.106;7.004;2023-03-23T04:03:48;10.50;99.90
52565;DHT22;38460;53.106;7.004;2023-03-23T04:06:14;10.50;99.90
52565;DHT22;38460;53.106;7.004;2023-03-23T04:08:41;10.50;99.90
52565;DHT22;38460;53.106;7.004;2023-03-23T04:11:08;10.50;99.90
52565;DHT22;38460;53.106;7.004;2023-03-23T04:13:34;10.50;99.90
52565;DHT22;38460;53.106;7.004;2023-03-23T04:16:00;10.50;99.90
52565;DHT22;38460;53.106;7.004;2023-03-23T04:18:26;10.50;99.90
52565;DHT22;38460;53.106;7.004;2023-03-23T04:20:52;10.50;99.90
52565;DHT22;38460;53.106;7.004;2023-03-23T04:23:19;10.50;99.90
52565;DHT22;38460;53.106;7.004;2023-03-23T04:25:48;10.40;99.90
52565;DHT22;38460;53.106;7.004;2023-03-23T04:28:15;10.50;99.90
52565;DHT22;38460;53.106;7.004;2023-03-23T04:30:42;10.50;99.90
52565;DHT22;38460;53.106;7.004;2023-03-23T04:33:09;10.50;99.90
52565;DHT22;38460;53.106;7.004;2023-03-23T04:35:43;10.50;99.90
52565;DHT22;38460;53.106;7.004;2023-03-23T04:38:12;10.50;99.90
52565;DHT22;38460;53.106;7.004;2023-03-23T04:40:42;10.50;99.90
52565;DHT22;38460;53.106;7.004;2023-03-23T04:43:08;10.60;99.90
52565;DHT22;38460;53.106;7.004;2023-03-23T04:45:35;10.60;99.90
52565;DHT22;38460;53.106;7.004;2023-03-23T04:48:03;10.60;99.90
52565;DHT22;38460;53.106;7.004;2023-03-23T04:50:32;10.60;99.90
52565;DHT22;38460;53.106;7.004;2023-03-23T04:53:02;10.70;99.90
52565;DHT22;38460;53.106;7.004;2023-03-23T04:55:32;10.70;99.90
52565;DHT22;38460;53.106;7.004;2023-03-23T04:58:06;10.70;99.90
52565;DHT22;38460;53.106;7.004;2023-03-23T05:00:33;10.70;99.90
52565;DHT22;38460;53.106;7.004;2023-03-23T05:02:59;10.70;99.90
52565;DHT22;38460;53.106;7.004;2023-03-23T05:05:27;10.70;99.90
52565;DHT22;38460;53.106;7.004;2023-03-23T05:07:54;10.60;99.90
52565;DHT22;38460;53.106;7.004;2023-03-23T05:10:21;10.50;99.90
52565;DHT22;38460;53.106;7.004;2023-03-23T05:12:46;10.40;99.90
52565;DHT22;38460;53.106;7.004;2023-03-23T05:15:14;10.20;99.90
52565;DHT22;38460;53.106;7.004;2023-03-23T05:17:40;10.10;99.90
52565;DHT22;38460;53.106;7.004;2023-03-23T05:20:11;10.00;99.90
52565;DHT22;38460;53.106;7.004;2023-03-23T05:22:37;9.90;99.90
52565;DHT22;38460;53.106;7.004;2023-03-23T05:25:05;9.80;99.90
52565;DHT22;38460;53.106;7.004;2023-03-23T05:27:35;9.80;99.90
52565;DHT22;38460;53.106;7.004;2023-03-23T05:30:00;9.80;99.90
52565;DHT22;38460;53.106;7.004;2023-03-23T05:32:27;9.80;99.90
52565;DHT22;38460;53.106;7.004;2023-03-23T05:35:00;9.80;99.90
52565;DHT22;38460;53.106;7.004;2023-03-23T05:37:27;9.70;99.90
52565;DHT22;38460;53.106;7.004;2023-03-23T05:39:59;9.70;99.90
52565;DHT22;38460;53.106;7.004;2023-03-23T05:42:31;9.70;99.90
52565;DHT22;38460;53.106;7.004;2023-03-23T05:44:57;9.70;99.90
52565;DHT22;38460;53.106;7.004;2023-03-23T05:47:24;9.70;99.90
52565;DHT22;38460;53.106;7.004;2023-03-23T05:49:51;9.70;99.90
52565;DHT22;38460;53.106;7.004;2023-03-23T05:52:18;9.70;99.90
52565;DHT22;38460;53.106;7.004;2023-03-23T05:54:44;9.70;99.90
52565;DHT22;38460;53.106;7.004;2023-03-23T05:57:10;9.70;99.90
52565;DHT22;38460;53.106;7.004;2023-03-23T05:59:36;9.70;99.90
52565;DHT22;38460;53.106;7.004;2023-03-23T06:02:03;9.70;99.90
52565;DHT22;38460;53.106;7.004;2023-03-23T06:04:29;9.80;99.90
52565;DHT22;38460;53.106;7.004;2023-03-23T06:06:55;9.80;99.90
52565;DHT22;38460;53.106;7.004;2023-03-23T06:09:21;9.80;99.90
52565;DHT22;38460;53.106;7.004;2023-03-23T06:11:49;9.80;99.90
52565;DHT22;38460;53.106;7.004;2023-03-23T06:14:14;9.80;99.90
52565;DHT22;38460;53.106;7.004;2023-03-23T06:16:42;9.80;99.90
52565;DHT22;38460;53.106;7.004;2023-03-23T06:19:07;9.80;99.90
52565;DHT22;38460;53.106;7.004;2023-03-23T06:21:33;9.80;99.90
52565;DHT22;38460;53.106;7.004;2023-03-23T06:24:00;9.80;99.90
52565;DHT22;38460;53.106;7.004;2023-03-23T06:26:30;9.80;99.90
52565;DHT22;38460;53.106;7.004;2023-03-23T06:28:57;9.80;99.90
52565;DHT22;38460;53.106;7.004;2023-03-23T06:31:24;9.80;99.90
52565;DHT22;38460;53.106;7.004;2023-03-23T06:33:50;9.80;99.90
52565;DHT22;38460;53.106;7.004;2023-03-23T06:36:16;9.80;99.90
52565;DHT22;38460;53.106;7.004;2023-03-23T06:38:43;9.90;99.90
52565;DHT22;38460;53.106;7.004;2023-03-23T06:41:08;9.90;99.90
52565;DHT22;38460;53.106;7.004;2023-03-23T06:43:34;9.90;99.90
52565;DHT22;38460;53.106;7.004;2023-03-23T06:46:03;9.90;99.90
52565;DHT22;38460;53.106;7.004;2023-03-23T06:48:29;10.00;99.90
52565;DHT22;38460;53.106;7.004;2023-03-23T06:50:55;10.00;99.90
52565;DHT22;38460;53.106;7.004;2023-03-23T06:53:20;10.00;99.90
52565;DHT22;38460;53.106;7.004;2023-03-23T06:55:46;10.00;99.90
52565;DHT22;38460;53.106;7.004;2023-03-23T06:58:12;10.00;99.90
52565;DHT22;38460;53.106;7.004;2023-03-23T07:00:39;10.10;99.90
52565;DHT22;38460;53.106;7.004;2023-03-23T07:03:06;10.10;99.90
52565;DHT22;38460;53.106;7.004;2023-03-23T07:05:33;10.10;99.90
52565;DHT22;38460;53.106;7.004;2023-03-23T07:08:01;10.10;99.90
52565;DHT22;38460;53.106;7.004;2023-03-23T07:10:27;10.10;99.90
52565;DHT22;38460;53.106;7.004;2023-03-23T07:12:54;10.10;99.90
52565;DHT22;38460;53.106;7.004;2023-03-23T07:15:19;10.20;99.90
52565;DHT22;38460;53.106;7.004;2023-03-23T07:17:46;10.30;99.90
52565;DHT22;38460;53.106;7.004;2023-03-23T07:20:12;10.30;99.90
52565;DHT22;38460;53.106;7.004;2023-03-23T07:22:39;10.30;99.90
52565;DHT22;38460;53.106;7.004;2023-03-23T07:25:05;10.30;99.90
52565;DHT22;38460;53.106;7.004;2023-03-23T07:27:30;10.40;99.90
52565;DHT22;38460;53.106;7.004;2023-03-23T07:29:56;10.40;99.90
52565;DHT22;38460;53.106;7.004;2023-03-23T07:32:23;10.40;99.90
52565;DHT22;38460;53.106;7.004;2023-03-23T07:34:50;10.40;99.90
52565;DHT22;38460;53.106;7.004;2023-03-23T07:37:16;10.40;99.90
52565;DHT22;38460;53.106;7.004;2023-03-23T07:39:42;10.40;99.90
52565;DHT22;38460;53.106;7.004;2023-03-23T07:42:08;10.40;99.90
52565;DHT22;38460;53.106;7.004;2023-03-23T07:44:34;10.40;99.90
52565;DHT22;38460;53.106;7.004;2023-03-23T07:47:00;10.40;99.90
52565;DHT22;38460;53.106;7.004;2023-03-23T07:49:26;10.40;99.90
52565;DHT22;38460;53.106;7.004;2023-03-23T07:51:52;10.50;99.90
52565;DHT22;38460;53.106;7.004;2023-03-23T07:54:18;10.50;99.90
52565;DHT22;38460;53.106;7.004;2023-03-23T07:56:44;10.60;99.90
52565;DHT22;38460;53.106;7.004;2023-03-23T07:59:11;10.70;99.90
52565;DHT22;38460;53.106;7.004;2023-03-23T08:01:38;10.70;99.90
52565;DHT22;38460;53.106;7.004;2023-03-23T08:04:04;10.80;99.90
52565;DHT22;38460;53.106;7.004;2023-03-23T08:06:33;10.80;99.90
52565;DHT22;38460;53.106;7.004;2023-03-23T08:08:59;10.80;99.90
52565;DHT22;38460;53.106;7.004;2023-03-23T08:11:26;10.90;99.90
52565;DHT22;38460;53.106;7.004;2023-03-23T08:13:52;10.90;99.90
52565;DHT22;38460;53.106;7.004;2023-03-23T08:16:18;11.00;99.90
52565;DHT22;38460;53.106;7.004;2023-03-23T08:18:45;11.00;99.90
52565;DHT22;38460;53.106;7.004;2023-03-23T08:21:11;11.10;99.90
52565;DHT22;38460;53.106;7.004;2023-03-23T08:23:38;11.10;99.90
52565;DHT22;38460;53.106;7.004;2023-03-23T08:26:05;11.20;99.90
52565;DHT22;38460;53.106;7.004;2023-03-23T08:28:36;11.20;99.90
52565;DHT22;38460;53.106;7.004;2023-03-23T08:31:07;11.30;99.90
52565;DHT22;38460;53.106;7.004;2023-03-23T08:33:33;11.30;99.90
52565;DHT22;38460;53.106;7.004;2023-03-23T08:36:00;11.30;99.90
52565;DHT22;38460;53.106;7.004;2023-03-23T08:38:27;11.30;99.90
52565;DHT22;38460;53.106;7.004;2023-03-23T08:40:58;11.30;99.90
52565;DHT22;38460;53.106;7.004;2023-03-23T08:43:24;11.30;99.90
52565;DHT22;38460;53.106;7.004;2023-03-23T08:45:50;11.40;99.90
52565;DHT22;38460;53.106;7.004;2023-03-23T08:48:17;11.40;99.90
52565;DHT22;38460;53.106;7.004;2023-03-23T08:50:43;11.50;99.90
52565;DHT22;38460;53.106;7.004;2023-03-23T08:53:09;11.50;99.90
52565;DHT22;38460;53.106;7.004;2023-03-23T08:55:35;11.50;99.90
52565;DHT22;38460;53.106;7.004;2023-03-23T08:58:01;11.50;99.90
52565;DHT22;38460;53.106;7.004;2023-03-23T09:00:29;11.50;99.90
52565;DHT22;38460;53.106;7.004;2023-03-23T09:02:55;11.50;99.90
52565;DHT22;38460;53.106;7.004;2023-03-23T09:05:24;11.50;99.90
52565;DHT22;38460;53.106;7.004;2023-03-23T09:07:53;11.50;99.90
52565;DHT22;38460;53.106;7.004;2023-03-23T09:10:19;11.50;99.90
52565;DHT22;38460;53.106;7.004;2023-03-23T09:12:46;11.60;99.90
52565;DHT22;38460;53.106;7.004;2023-03-23T09:15:16;11.60;99.90
52565;DHT22;38460;53.106;7.004;2023-03-23T09:17:45;11.60;99.90
52565;DHT22;38460;53.106;7.004;2023-03-23T09:20:13;11.60;99.90
52565;DHT22;38460;53.106;7.004;2023-03-23T09:22:41;11.60;99.90
52565;DHT22;38460;53.106;7.004;2023-03-23T09:25:09;11.60;99.90
52565;DHT22;38460;53.106;7.004;2023-03-23T09:27:36;11.50;99.90
52565;DHT22;38460;53.106;7.004;2023-03-23T09:30:06;11.50;99.90
52565;DHT22;38460;53.106;7.004;2023-03-23T09:32:34;11.60;99.90
52565;DHT22;38460;53.106;7.004;2023-03-23T09:35:04;11.70;99.90
52565;DHT22;38460;53.106;7.004;2023-03-23T09:37:33;11.90;99.90
52565;DHT22;38460;53.106;7.004;2023-03-23T09:40:00;12.00;99.90
52565;DHT22;38460;53.106;7.004;2023-03-23T09:42:41;12.20;99.90
52565;DHT22;38460;53.106;7.004;2023-03-23T09:51:04;12.70;99.90
52565;DHT22;38460;53.106;7.004;2023-03-23T09:53:38;12.70;99.90
52565;DHT22;38460;53.106;7.004;2023-03-23T09:56:11;12.70;99.90
52565;DHT22;38460;53.106;7.004;2023-03-23T09:58:54;12.60;99.90
52565;DHT22;38460;53.106;7.004;2023-03-23T10:01:49;12.60;99.90
52565;DHT22;38460;53.106;7.004;2023-03-23T10:04:47;12.60;99.90
52565;DHT22;38460;53.106;7.004;2023-03-23T10:07:18;12.50;99.90
52565;DHT22;38460;53.106;7.004;2023-03-23T10:09:48;12.60;99.90
52565;DHT22;38460;53.106;7.004;2023-03-23T10:22:47;13.30;99.90
52565;DHT22;38460;53.106;7.004;2023-03-23T10:25:19;13.40;99.90
52565;DHT22;38460;53.106;7.004;2023-03-23T10:27:59;13.50;99.90
52565;DHT22;38460;53.106;7.004;2023-03-23T10:30:50;13.60;99.90
52565;DHT22;38460;53.106;7.004;2023-03-23T10:33:22;13.70;99.90
52565;DHT22;38460;53.106;7.004;2023-03-23T10:36:07;13.80;99.90
52565;DHT22;38460;53.106;7.004;2023-03-23T10:39:00;13.90;99.90
52565;DHT22;38460;53.106;7.004;2023-03-23T10:41:26;14.00;99.90
52565;DHT22;38460;53.106;7.004;2023-03-23T10:43:52;14.20;99.90
52565;DHT22;38460;53.106;7.004;2023-03-23T10:49:37;14.30;99.90
52565;DHT22;38460;53.106;7.004;2023-03-23T10:54:46;14.50;99.90
52565;DHT22;38460;53.106;7.004;2023-03-23T10:57:20;14.60;99.90
52565;DHT22;38460;53.106;7.004;2023-03-23T10:59:47;14.70;99.90
52565;DHT22;38460;53.106;7.004;2023-03-23T11:02:20;14.80;99.90
52565;DHT22;38460;53.106;7.004;2023-03-23T11:05:03;14.90;99.90
52565;DHT22;38460;53.106;7.004;2023-03-23T11:07:33;14.90;99.90
52565;DHT22;38460;53.106;7.004;2023-03-23T11:10:27;15.00;99.90
52565;DHT22;38460;53.106;7.004;2023-03-23T11:12:57;15.20;99.90
52565;DHT22;38460;53.106;7.004;2023-03-23T11:15:35;15.30;99.90
52565;DHT22;38460;53.106;7.004;2023-03-23T11:18:25;15.40;99.90
52565;DHT22;38460;53.106;7.004;2023-03-23T11:20:57;15.50;99.90
52565;DHT22;38460;53.106;7.004;2023-03-23T11:23:32;15.70;99.90
52565;DHT22;38460;53.106;7.004;2023-03-23T11:26:15;15.70;99.90
52565;DHT22;38460;53.106;7.004;2023-03-23T11:28:57;15.80;99.90
52565;DHT22;38460;53.106;7.004;2023-03-23T11:31:35;15.90;99.90
52565;DHT22;38460;53.106;7.004;2023-03-23T11:34:11;16.00;99.90
52565;DHT22;38460;53.106;7.004;2023-03-23T11:36:46;16.00;99.90
52565;DHT22;38460;53.106;7.004;2023-03-23T11:39:22;16.10;99.90
52565;DHT22;38460;53.106;7.004;2023-03-23T11:41:48;16.20;99.90
52565;DHT22;38460;53.106;7.004;2023-03-23T11:44:15;16.20;99.90
52565;DHT22;38460;53.106;7.004;2023-03-23T11:52:21;16.40;99.90
52565;DHT22;38460;53.106;7.004;2023-03-23T11:55:13;16.50;99.90
52565;DHT22;38460;53.106;7.004;2023-03-23T11:57:40;16.40;99.90
52565;DHT22;38460;53.106;7.004;2023-03-23T12:00:18;16.30;99.90
52565;DHT22;38460;53.106;7.004;2023-03-23T12:03:05;16.20;99.90
52565;DHT22;38460;53.106;7.004;2023-03-23T12:06:18;16.00;99.90
52565;DHT22;38460;53.106;7.004;2023-03-23T12:11:52;15.60;99.90
52565;DHT22;38460;53.106;7.004;2023-03-23T12:17:09;15.50;99.90
52565;DHT22;38460;53.106;7.004;2023-03-23T12:19:45;15.60;99.90
52565;DHT22;38460;53.106;7.004;2023-03-23T12:22:16;15.60;99.90
52565;DHT22;38460;53.106;7.004;2023-03-23T12:36:46;15.10;99.90
52565;DHT22;38460;53.106;7.004;2023-03-23T12:39:48;15.10;99.90
52565;DHT22;38460;53.106;7.004;2023-03-23T12:48:10;15.90;99.90
52565;DHT22;38460;53.106;7.004;2023-03-23T12:50:39;15.90;99.90
52565;DHT22;38460;53.106;7.004;2023-03-23T12:53:08;15.70;99.90
52565;DHT22;38460;53.106;7.004;2023-03-23T12:55:51;15.70;99.90
52565;DHT22;38460;53.106;7.004;2023-03-23T12:58:25;15.70;99.90
52565;DHT22;38460;53.106;7.004;2023-03-23T13:01:10;15.70;99.90
52565;DHT22;38460;53.106;7.004;2023-03-23T13:06:35;15.90;99.90
52565;DHT22;38460;53.106;7.004;2023-03-23T13:11:47;15.70;99.90
52565;DHT22;38460;53.106;7.004;2023-03-23T13:14:41;15.60;99.90
52565;DHT22;38460;53.106;7.004;2023-03-23T13:20:00;15.40;99.90
52565;DHT22;38460;53.106;7.004;2023-03-23T13:23:35;15.30;99.90
52565;DHT22;38460;53.106;7.004;2023-03-23T13:26:12;15.10;99.90
52565;DHT22;38460;53.106;7.004;2023-03-23T13:36:58;15.00;99.90
52565;DHT22;38460;53.106;7.004;2023-03-23T13:39:26;15.10;99.90
52565;DHT22;38460;53.106;7.004;2023-03-23T13:42:05;15.20;99.90
52565;DHT22;38460;53.106;7.004;2023-03-23T13:45:05;15.10;99.90
52565;DHT22;38460;53.106;7.004;2023-03-23T13:47:37;15.20;99.90
52565;DHT22;38460;53.106;7.004;2023-03-23T13:55:20;15.40;99.90
52565;DHT22;38460;53.106;7.004;2023-03-23T13:57:58;15.40;99.90
52565;DHT22;38460;53.106;7.004;2023-03-23T14:00:48;15.50;99.90
52565;DHT22;38460;53.106;7.004;2023-03-23T14:03:25;15.60;99.90
52565;DHT22;38460;53.106;7.004;2023-03-23T14:16:24;15.30;99.90
52565;DHT22;38460;53.106;7.004;2023-03-23T14:19:00;15.40;99.90
52565;DHT22;38460;53.106;7.004;2023-03-23T14:24:38;15.50;99.90
52565;DHT22;38460;53.106;7.004;2023-03-23T14:27:09;15.50;99.90
52565;DHT22;38460;53.106;7.004;2023-03-23T14:29:35;15.40;99.90
52565;DHT22;38460;53.106;7.004;2023-03-23T14:32:01;15.30;99.90
52565;DHT22;38460;53.106;7.004;2023-03-23T14:34:30;15.30;99.90
52565;DHT22;38460;53.106;7.004;2023-03-23T14:36:58;15.20;99.90
52565;DHT22;38460;53.106;7.004;2023-03-23T14:39:29;15.20;99.90
52565;DHT22;38460;53.106;7.004;2023-03-23T14:42:04;15.20;99.90
52565;DHT22;38460;53.106;7.004;2023-03-23T14:44:34;15.10;99.90
52565;DHT22;38460;53.106;7.004;2023-03-23T14:47:05;15.10;99.90
52565;DHT22;38460;53.106;7.004;2023-03-23T14:49:41;15.10;99.90
52565;DHT22;38460;53.106;7.004;2023-03-23T14:52:12;15.10;99.90
52565;DHT22;38460;53.106;7.004;2023-03-23T14:54:39;15.10;99.90
52565;DHT22;38460;53.106;7.004;2023-03-23T14:57:16;15.10;99.90
52565;DHT22;38460;53.106;7.004;2023-03-23T14:59:43;15.10;99.90
52565;DHT22;38460;53.106;7.004;2023-03-23T15:02:23;15.10;99.90
52565;DHT22;38460;53.106;7.004;2023-03-23T15:04:56;15.10;99.90
52565;DHT22;38460;53.106;7.004;2023-03-23T15:07:29;15.10;99.90
52565;DHT22;38460;53.106;7.004;2023-03-23T15:09:56;15.10;99.90
52565;DHT22;38460;53.106;7.004;2023-03-23T15:12:25;15.10;99.90
52565;DHT22;38460;53.106;7.004;2023-03-23T15:14:57;15.20;99.90
52565;DHT22;38460;53.106;7.004;2023-03-23T15:17:26;15.20;99.90
52565;DHT22;38460;53.106;7.004;2023-03-23T15:19:53;15.30;99.90
52565;DHT22;38460;53.106;7.004;2023-03-23T15:22:29;15.20;99.90
52565;DHT22;38460;53.106;7.004;2023-03-23T15:28:06;15.20;99.90
52565;DHT22;38460;53.106;7.004;2023-03-23T15:30:35;15.10;99.90
52565;DHT22;38460;53.106;7.004;2023-03-23T15:33:09;15.10;99.90
52565;DHT22;38460;53.106;7.004;2023-03-23T15:35:38;15.00;99.90
52565;DHT22;38460;53.106;7.004;2023-03-23T15:38:21;15.00;99.90
52565;DHT22;38460;53.106;7.004;2023-03-23T15:40:49;14.90;99.90
52565;DHT22;38460;53.106;7.004;2023-03-23T15:43:24;14.90;99.90
52565;DHT22;38460;53.106;7.004;2023-03-23T15:48:53;14.70;99.90
52565;DHT22;38460;53.106;7.004;2023-03-23T15:51:23;14.70;99.90
52565;DHT22;38460;53.106;7.004;2023-03-23T15:53:50;14.60;99.90
52565;DHT22;38460;53.106;7.004;2023-03-23T15:56:16;14.60;99.90
52565;DHT22;38460;53.106;7.004;2023-03-23T15:58:42;14.60;99.90
52565;DHT22;38460;53.106;7.004;2023-03-23T16:01:14;14.50;99.90
52565;DHT22;38460;53.106;7.004;2023-03-23T16:04:29;14.40;99.90
52565;DHT22;38460;53.106;7.004;2023-03-23T16:06:32;14.40;99.90
52565;DHT22;38460;53.106;7.004;2023-03-23T16:08:59;14.40;99.90
52565;DHT22;38460;53.106;7.004;2023-03-23T16:11:26;14.30;99.90
52565;DHT22;38460;53.106;7.004;2023-03-23T16:13:53;14.30;99.90
52565;DHT22;38460;53.106;7.004;2023-03-23T16:16:33;14.20;99.90
52565;DHT22;38460;53.106;7.004;2023-03-23T16:18:59;14.20;99.90
52565;DHT22;38460;53.106;7.004;2023-03-23T16:21:25;14.10;99.90
52565;DHT22;38460;53.106;7.004;2023-03-23T16:23:51;14.00;99.90
52565;DHT22;38460;53.106;7.004;2023-03-23T16:26:17;14.00;99.90
52565;DHT22;38460;53.106;7.004;2023-03-23T16:28:43;13.90;99.90
52565;DHT22;38460;53.106;7.004;2023-03-23T16:31:09;13.80;99.90
52565;DHT22;38460;53.106;7.004;2023-03-23T16:33:35;13.80;99.90
52565;DHT22;38460;53.106;7.004;2023-03-23T16:36:01;13.70;99.90
52565;DHT22;38460;53.106;7.004;2023-03-23T16:38:27;13.70;99.90
52565;DHT22;38460;53.106;7.004;2023-03-23T16:40:53;13.70;99.90
52565;DHT22;38460;53.106;7.004;2023-03-23T16:43:19;13.70;99.90
52565;DHT22;38460;53.106;7.004;2023-03-23T16:45:45;13.70;99.90
52565;DHT22;38460;53.106;7.004;2023-03-23T16:48:13;13.60;99.90
52565;DHT22;38460;53.106;7.004;2023-03-23T16:50:39;13.60;99.90
52565;DHT22;38460;53.106;7.004;2023-03-23T16:53:06;13.50;99.90
52565;DHT22;38460;53.106;7.004;2023-03-23T16:55:33;13.50;99.90
52565;DHT22;38460;53.106;7.004;2023-03-23T16:57:59;13.50;99.90
52565;DHT22;38460;53.106;7.004;2023-03-23T17:00:26;13.40;99.90
52565;DHT22;38460;53.106;7.004;2023-03-23T17:02:53;13.40;99.90
52565;DHT22;38460;53.106;7.004;2023-03-23T17:05:22;13.40;99.90
52565;DHT22;38460;53.106;7.004;2023-03-23T17:07:49;13.30;99.90
52565;DHT22;38460;53.106;7.004;2023-03-23T17:10:16;13.30;99.90
52565;DHT22;38460;53.106;7.004;2023-03-23T17:12:42;13.20;99.90
52565;DHT22;38460;53.106;7.004;2023-03-23T17:15:10;13.20;99.90
52565;DHT22;38460;53.106;7.004;2023-03-23T17:17:37;13.10;99.90
52565;DHT22;38460;53.106;7.004;2023-03-23T17:20:04;13.10;99.90
52565;DHT22;38460;53.106;7.004;2023-03-23T17:22:30;13.00;99.90
52565;DHT22;38460;53.106;7.004;2023-03-23T17:24:55;13.00;99.90
52565;DHT22;38460;53.106;7.004;2023-03-23T17:27:23;13.00;99.90
52565;DHT22;38460;53.106;7.004;2023-03-23T17:29:50;12.90;99.90
52565;DHT22;38460;53.106;7.004;2023-03-23T17:32:16;12.90;99.90
52565;DHT22;38460;53.106;7.004;2023-03-23T17:34:42;12.90;99.90
52565;DHT22;38460;53.106;7.004;2023-03-23T17:37:08;12.80;99.90
52565;DHT22;38460;53.106;7.004;2023-03-23T17:39:34;12.80;99.90
52565;DHT22;38460;53.106;7.004;2023-03-23T17:42:00;12.80;99.90
52565;DHT22;38460;53.106;7.004;2023-03-23T17:44:26;12.80;99.90